sensor_id;sensor_type;location;lat;lon;timestamp;pressure;altitude;pressure_sealevel;temperature;humidity
40245;BME280;25963;42.694;23.600;2023-04-01T00:00:08;94349.56;;;6.95;100.00
40245;BME280;25963;42.694;23.600;2023-04-01T00:02:35;94347.59;;;6.91;100.00
40245;BME280;25963;42.694;23.600;2023-04-01T00:05:00;94356.88;;;7.12;100.00
40245;BME280;25963;42.694;23.600;2023-04-01T00:07:26;94338.97;;;7.08;100.00
40245;BME280;25963;42.694;23.600;2023-04-01T00:09:52;94348.97;;;7.18;100.00
40245;BME280;25963;42.694;23.600;2023-04-01T00:12:17;94336.56;;;7.07;100.00
40245;BME280;25963;42.694;23.600;2023-04-01T00:14:43;94337.91;;;7.16;100.00
40245;BME280;25963;42.694;23.600;2023-04-01T00:17:09;94355.69;;;7.32;100.00
40245;BME280;25963;42.694;23.600;2023-04-01T00:19:35;94353.22;;;7.38;100.00
40245;BME280;25963;42.694;23.600;2023-04-01T00:22:02;94359.38;;;7.50;100.00
40245;BME280;25963;42.694;23.600;2023-04-01T00:24:28;94312.72;;;7.34;100.00
40245;BME280;25963;42.694;23.600;2023-04-01T00:26:54;94351.03;;;7.35;100.00
40245;BME280;25963;42.694;23.600;2023-04-01T00:29:19;94340.84;;;7.45;100.00
40245;BME280;25963;42.694;23.600;2023-04-01T00:31:45;94357.63;;;7.62;100.00
40245;BME280;25963;42.694;23.600;2023-04-01T00:34:11;94352.09;;;7.52;100.00
40245;BME280;25963;42.694;23.600;2023-04-01T00:36:37;94350.69;;;7.49;100.00
40245;BME280;25963;42.694;23.600;2023-04-01T00:39:03;94356.22;;;7.60;100.00
40245;BME280;25963;42.694;23.600;2023-04-01T00:41:29;94345.38;;;7.56;100.00
40245;BME280;25963;42.694;23.600;2023-04-01T00:44:24;94342.47;;;7.64;100.00
40245;BME280;25963;42.694;23.600;2023-04-01T00:46:50;94337.06;;;7.59;100.00
40245;BME280;25963;42.694;23.600;2023-04-01T00:49:19;94330.47;;;7.31;100.00
40245;BME280;25963;42.694;23.600;2023-04-01T00:51:47;94326.69;;;7.27;100.00
40245;BME280;25963;42.694;23.600;2023-04-01T00:54:15;94329.75;;;7.24;100.00
40245;BME280;25963;42.694;23.600;2023-04-01T00:56:45;94311.75;;;7.28;100.00
40245;BME280;25963;42.694;23.600;2023-04-01T00:59:19;94323.28;;;7.45;100.00
40245;BME280;25963;42.694;23.600;2023-04-01T01:01:47;94308.47;;;7.32;100.00
40245;BME280;25963;42.694;23.600;2023-04-01T01:06:57;94318.03;;;7.45;100.00
40245;BME280;25963;42.694;23.600;2023-04-01T01:17:26;94328.03;;;7.55;100.00
40245;BME280;25963;42.694;23.600;2023-04-01T01:36:32;94260.59;;;7.19;100.00
40245;BME280;25963;42.694;23.600;2023-04-01T01:39:06;94286.03;;;7.37;100.00
40245;BME280;25963;42.694;23.600;2023-04-01T01:41:34;94270.94;;;7.32;100.00
40245;BME280;25963;42.694;23.600;2023-04-01T01:44:03;94245.06;;;7.17;100.00
40245;BME280;25963;42.694;23.600;2023-04-01T01:46:30;94265.84;;;7.37;100.00
40245;BME280;25963;42.694;23.600;2023-04-01T01:48:56;94260.00;;;7.35;100.00
40245;BME280;25963;42.694;23.600;2023-04-01T01:51:23;94255.28;;;7.44;100.00
40245;BME280;25963;42.694;23.600;2023-04-01T01:53:49;94254.19;;;7.51;100.00
40245;BME280;25963;42.694;23.600;2023-04-01T01:56:16;94248.94;;;7.33;100.00
40245;BME280;25963;42.694;23.600;2023-04-01T01:58:45;94243.53;;;7.46;100.00
40245;BME280;25963;42.694;23.600;2023-04-01T02:01:15;94233.34;;;7.38;100.00
40245;BME280;25963;42.694;23.600;2023-04-01T02:03:42;94236.25;;;7.48;100.00
40245;BME280;25963;42.694;23.600;2023-04-01T02:06:14;94234.28;;;7.44;100.00
40245;BME280;25963;42.694;23.600;2023-04-01T02:11:12;94230.06;;;7.43;100.00
40245;BME280;25963;42.694;23.600;2023-04-01T02:13:44;94244.56;;;7.45;100.00
40245;BME280;25963;42.694;23.600;2023-04-01T02:16:19;94214.97;;;7.38;100.00
40245;BME280;25963;42.694;23.600;2023-04-01T02:18:48;94231.66;;;7.44;100.00
40245;BME280;25963;42.694;23.600;2023-04-01T02:21:16;94214.69;;;7.28;100.00
40245;BME280;25963;42.694;23.600;2023-04-01T02:23:45;94225.34;;;7.33;100.00
40245;BME280;25963;42.694;23.600;2023-04-01T02:26:12;94215.03;;;7.50;100.00
40245;BME280;25963;42.694;23.600;2023-04-01T02:28:40;94218.16;;;7.59;100.00
40245;BME280;25963;42.694;23.600;2023-04-01T02:31:08;94228.84;;;7.75;100.00
40245;BME280;25963;42.694;23.600;2023-04-01T02:33:36;94216.91;;;7.61;100.00
40245;BME280;25963;42.694;23.600;2023-04-01T02:36:04;94221.06;;;7.50;100.00
40245;BME280;25963;42.694;23.600;2023-04-01T02:38:30;94207.00;;;7.45;100.00
40245;BME280;25963;42.694;23.600;2023-04-01T02:41:00;94215.75;;;7.57;100.00
40245;BME280;25963;42.694;23.600;2023-04-01T02:43:27;94214.06;;;7.63;100.00
40245;BME280;25963;42.694;23.600;2023-04-01T02:45:53;94204.63;;;7.73;99.94
40245;BME280;25963;42.694;23.600;2023-04-01T02:48:18;94207.84;;;7.75;99.16
40245;BME280;25963;42.694;23.600;2023-04-01T02:50:44;94213.16;;;7.87;98.12
40245;BME280;25963;42.694;23.600;2023-04-01T02:53:10;94214.78;;;8.00;97.89
40245;BME280;25963;42.694;23.600;2023-04-01T02:55:35;94214.88;;;7.93;97.77
40245;BME280;25963;42.694;23.600;2023-04-01T02:58:01;94220.97;;;8.06;96.31
40245;BME280;25963;42.694;23.600;2023-04-01T03:00:26;94223.03;;;8.15;95.57
40245;BME280;25963;42.694;23.600;2023-04-01T03:02:53;94220.53;;;8.20;94.92
40245;BME280;25963;42.694;23.600;2023-04-01T03:05:19;94210.84;;;8.21;95.33
40245;BME280;25963;42.694;23.600;2023-04-01T03:07:45;94202.81;;;8.16;96.26
40245;BME280;25963;42.694;23.600;2023-04-01T03:10:10;94228.97;;;8.41;95.17
40245;BME280;25963;42.694;23.600;2023-04-01T03:12:36;94216.78;;;8.28;95.78
40245;BME280;25963;42.694;23.600;2023-04-01T03:15:02;94219.28;;;8.23;95.82
40245;BME280;25963;42.694;23.600;2023-04-01T03:17:27;94229.97;;;8.40;94.69
40245;BME280;25963;42.694;23.600;2023-04-01T03:19:53;94237.06;;;8.51;92.91
40245;BME280;25963;42.694;23.600;2023-04-01T03:22:18;94237.66;;;8.53;96.19
40245;BME280;25963;42.694;23.600;2023-04-01T03:24:46;94226.94;;;8.24;96.85
40245;BME280;25963;42.694;23.600;2023-04-01T03:27:12;94241.28;;;8.52;97.96
40245;BME280;25963;42.694;23.600;2023-04-01T03:29:38;94228.84;;;8.59;100.00
40245;BME280;25963;42.694;23.600;2023-04-01T03:32:04;94228.84;;;8.59;100.00
40245;BME280;25963;42.694;23.600;2023-04-01T03:34:29;94229.59;;;8.36;100.00
40245;BME280;25963;42.694;23.600;2023-04-01T03:36:54;94225.75;;;8.51;100.00
40245;BME280;25963;42.694;23.600;2023-04-01T03:39:20;94217.53;;;8.47;100.00
40245;BME280;25963;42.694;23.600;2023-04-01T03:41:45;94225.41;;;8.47;100.00
40245;BME280;25963;42.694;23.600;2023-04-01T03:44:11;94249.22;;;8.34;100.00
40245;BME280;25963;42.694;23.600;2023-04-01T03:46:37;94248.69;;;8.01;100.00
40245;BME280;25963;42.694;23.600;2023-04-01T03:49:12;94272.09;;;8.03;100.00
40245;BME280;25963;42.694;23.600;2023-04-01T03:51:39;94242.09;;;7.81;100.00
40245;BME280;25963;42.694;23.600;2023-04-01T03:54:05;94256.31;;;7.91;100.00
40245;BME280;25963;42.694;23.600;2023-04-01T03:56:31;94253.59;;;7.98;100.00
40245;BME280;25963;42.694;23.600;2023-04-01T03:58:57;94239.59;;;7.86;100.00
40245;BME280;25963;42.694;23.600;2023-04-01T04:01:23;94214.69;;;7.76;100.00
40245;BME280;25963;42.694;23.600;2023-04-01T04:03:49;94219.09;;;7.94;100.00
40245;BME280;25963;42.694;23.600;2023-04-01T04:06:16;94235.53;;;8.01;100.00
40245;BME280;25963;42.694;23.600;2023-04-01T04:08:42;94213.91;;;7.76;100.00
40245;BME280;25963;42.694;23.600;2023-04-01T04:11:07;94205.22;;;7.75;100.00
40245;BME280;25963;42.694;23.600;2023-04-01T04:13:33;94214.31;;;8.03;100.00
40245;BME280;25963;42.694;23.600;2023-04-01T04:15:58;94203.88;;;7.85;100.00
40245;BME280;25963;42.694;23.600;2023-04-01T04:18:24;94179.06;;;7.69;100.00
40245;BME280;25963;42.694;23.600;2023-04-01T04:20:49;94163.78;;;7.77;100.00
40245;BME280;25963;42.694;23.600;2023-04-01T04:23:17;94159.16;;;7.61;100.00
40245;BME280;25963;42.694;23.600;2023-04-01T04:26:01;94159.50;;;7.95;100.00
40245;BME280;25963;42.694;23.600;2023-04-01T04:28:27;94158.06;;;7.81;100.00
40245;BME280;25963;42.694;23.600;2023-04-01T04:30:53;94156.69;;;7.66;100.00
40245;BME280;25963;42.694;23.600;2023-04-01T04:33:20;94143.72;;;7.53;100.00
40245;BME280;25963;42.694;23.600;2023-04-01T04:35:46;94136.66;;;7.53;100.00
40245;BME280;25963;42.694;23.600;2023-04-01T04:38:11;94133.59;;;7.57;100.00
40245;BME280;25963;42.694;23.600;2023-04-01T04:40:37;94133.91;;;7.48;100.00
40245;BME280;25963;42.694;23.600;2023-04-01T04:43:03;94125.47;;;7.46;100.00
40245;BME280;25963;42.694;23.600;2023-04-01T04:45:29;94129.28;;;7.32;100.00
40245;BME280;25963;42.694;23.600;2023-04-01T04:47:56;94119.50;;;7.09;100.00
40245;BME280;25963;42.694;23.600;2023-04-01T04:50:22;94114.25;;;7.09;100.00
40245;BME280;25963;42.694;23.600;2023-04-01T04:52:51;94103.63;;;7.04;100.00
40245;BME280;25963;42.694;23.600;2023-04-01T04:55:16;94089.28;;;7.06;100.00
40245;BME280;25963;42.694;23.600;2023-04-01T04:57:42;94102.31;;;6.95;100.00
40245;BME280;25963;42.694;23.600;2023-04-01T05:00:08;94084.97;;;6.94;100.00
40245;BME280;25963;42.694;23.600;2023-04-01T05:02:36;94100.41;;;7.02;100.00
40245;BME280;25963;42.694;23.600;2023-04-01T05:05:01;94102.94;;;7.08;100.00
40245;BME280;25963;42.694;23.600;2023-04-01T05:07:27;94095.06;;;7.08;100.00
40245;BME280;25963;42.694;23.600;2023-04-01T05:09:52;94083.50;;;7.16;100.00
40245;BME280;25963;42.694;23.600;2023-04-01T05:12:18;94087.09;;;7.34;100.00
40245;BME280;25963;42.694;23.600;2023-04-01T05:14:43;94080.25;;;7.44;100.00
40245;BME280;25963;42.694;23.600;2023-04-01T05:17:10;94079.81;;;7.47;100.00
40245;BME280;25963;42.694;23.600;2023-04-01T05:19:36;94089.09;;;7.62;100.00
40245;BME280;25963;42.694;23.600;2023-04-01T05:22:01;94075.06;;;7.68;100.00
40245;BME280;25963;42.694;23.600;2023-04-01T05:24:36;94074.38;;;7.61;100.00
40245;BME280;25963;42.694;23.600;2023-04-01T05:27:01;94067.53;;;7.60;100.00
40245;BME280;25963;42.694;23.600;2023-04-01T05:29:27;94049.84;;;7.55;100.00
40245;BME280;25963;42.694;23.600;2023-04-01T05:31:52;94057.19;;;7.76;100.00
40245;BME280;25963;42.694;23.600;2023-04-01T05:34:17;94045.44;;;7.79;100.00
40245;BME280;25963;42.694;23.600;2023-04-01T05:36:43;94036.97;;;7.77;100.00
40245;BME280;25963;42.694;23.600;2023-04-01T05:39:10;94062.31;;;7.95;100.00
40245;BME280;25963;42.694;23.600;2023-04-01T05:41:36;94043.94;;;7.95;100.00
40245;BME280;25963;42.694;23.600;2023-04-01T05:44:02;94030.94;;;8.23;100.00
40245;BME280;25963;42.694;23.600;2023-04-01T05:46:31;94048.38;;;8.65;100.00
40245;BME280;25963;42.694;23.600;2023-04-01T05:48:57;94036.94;;;9.28;100.00
40245;BME280;25963;42.694;23.600;2023-04-01T05:51:23;94060.16;;;10.27;100.00
40245;BME280;25963;42.694;23.600;2023-04-01T05:53:48;94036.56;;;11.04;92.49
40245;BME280;25963;42.694;23.600;2023-04-01T05:56:14;94052.19;;;11.86;86.56
40245;BME280;25963;42.694;23.600;2023-04-01T05:58:40;94069.47;;;11.99;85.24
40245;BME280;25963;42.694;23.600;2023-04-01T06:01:08;94061.19;;;11.58;83.42
40245;BME280;25963;42.694;23.600;2023-04-01T06:03:34;94065.59;;;11.26;83.64
40245;BME280;25963;42.694;23.600;2023-04-01T06:06:00;94065.69;;;11.36;84.99
40245;BME280;25963;42.694;23.600;2023-04-01T06:08:27;94052.50;;;11.63;84.03
40245;BME280;25963;42.694;23.600;2023-04-01T06:21:55;94048.06;;;14.10;67.72
40245;BME280;25963;42.694;23.600;2023-04-01T06:38:19;94043.00;;;13.47;70.39
40245;BME280;25963;42.694;23.600;2023-04-01T06:46:45;94036.06;;;13.31;69.24
40245;BME280;25963;42.694;23.600;2023-04-01T06:49:49;94031.84;;;13.45;71.08
40245;BME280;25963;42.694;23.600;2023-04-01T06:52:58;94028.13;;;13.36;70.13
40245;BME280;25963;42.694;23.600;2023-04-01T06:58:23;94015.72;;;13.46;73.74
40245;BME280;25963;42.694;23.600;2023-04-01T07:01:02;94022.34;;;13.49;72.28
40245;BME280;25963;42.694;23.600;2023-04-01T07:06:04;94017.00;;;13.29;74.90
40245;BME280;25963;42.694;23.600;2023-04-01T07:08:33;94006.41;;;13.39;76.89
40245;BME280;25963;42.694;23.600;2023-04-01T07:11:03;93996.34;;;13.36;74.63
40245;BME280;25963;42.694;23.600;2023-04-01T07:16:24;93993.47;;;13.53;74.46
40245;BME280;25963;42.694;23.600;2023-04-01T07:22:03;93986.31;;;13.63;76.60
40245;BME280;25963;42.694;23.600;2023-04-01T07:24:31;93986.06;;;13.70;74.34
40245;BME280;25963;42.694;23.600;2023-04-01T07:26:58;93985.25;;;13.75;72.38
40245;BME280;25963;42.694;23.600;2023-04-01T07:29:25;93984.19;;;14.01;72.73
40245;BME280;25963;42.694;23.600;2023-04-01T07:48:21;93966.59;;;14.51;66.67
40245;BME280;25963;42.694;23.600;2023-04-01T07:51:04;93951.50;;;14.36;66.94
40245;BME280;25963;42.694;23.600;2023-04-01T07:53:40;93962.09;;;14.36;66.86
40245;BME280;25963;42.694;23.600;2023-04-01T08:01:23;93967.66;;;14.45;70.55
40245;BME280;25963;42.694;23.600;2023-04-01T08:06:38;93964.44;;;14.53;67.27
40245;BME280;25963;42.694;23.600;2023-04-01T08:14:50;93956.75;;;14.47;63.99
40245;BME280;25963;42.694;23.600;2023-04-01T08:17:28;93961.34;;;14.15;65.16
40245;BME280;25963;42.694;23.600;2023-04-01T08:22:51;93942.31;;;13.83;64.89
40245;BME280;25963;42.694;23.600;2023-04-01T08:25:25;93952.38;;;13.76;66.44
40245;BME280;25963;42.694;23.600;2023-04-01T08:28:02;93934.88;;;13.85;67.61
40245;BME280;25963;42.694;23.600;2023-04-01T08:30:50;93926.38;;;13.93;68.77
40245;BME280;25963;42.694;23.600;2023-04-01T08:33:30;93920.03;;;13.94;67.68
40245;BME280;25963;42.694;23.600;2023-04-01T08:36:02;93901.94;;;14.11;67.11
40245;BME280;25963;42.694;23.600;2023-04-01T08:38:32;93882.34;;;14.12;69.44
40245;BME280;25963;42.694;23.600;2023-04-01T08:41:09;93901.31;;;14.45;68.42
40245;BME280;25963;42.694;23.600;2023-04-01T08:50:09;93873.09;;;14.75;66.65
40245;BME280;25963;42.694;23.600;2023-04-01T08:52:37;93857.84;;;14.91;65.35
40245;BME280;25963;42.694;23.600;2023-04-01T08:58:19;93847.09;;;15.11;62.27
40245;BME280;25963;42.694;23.600;2023-04-01T09:09:57;93852.91;;;15.47;58.73
40245;BME280;25963;42.694;23.600;2023-04-01T09:15:55;93841.47;;;15.47;57.43
40245;BME280;25963;42.694;23.600;2023-04-01T09:21:14;93838.44;;;15.59;56.04
40245;BME280;25963;42.694;23.600;2023-04-01T09:40:37;93811.97;;;16.44;52.15
40245;BME280;25963;42.694;23.600;2023-04-01T09:43:28;93810.25;;;16.54;54.34
40245;BME280;25963;42.694;23.600;2023-04-01T09:51:39;93800.19;;;16.70;50.07
40245;BME280;25963;42.694;23.600;2023-04-01T09:57:19;93786.44;;;16.62;52.75
40245;BME280;25963;42.694;23.600;2023-04-01T10:14:23;93749.59;;;16.70;52.17
40245;BME280;25963;42.694;23.600;2023-04-01T10:19:59;93733.38;;;17.04;50.04
40245;BME280;25963;42.694;23.600;2023-04-01T10:22:58;93740.19;;;17.10;50.99
40245;BME280;25963;42.694;23.600;2023-04-01T10:28:52;93731.63;;;17.13;47.60
40245;BME280;25963;42.694;23.600;2023-04-01T10:36:56;93727.13;;;16.95;49.87
40245;BME280;25963;42.694;23.600;2023-04-01T10:39:59;93724.47;;;16.95;50.32
40245;BME280;25963;42.694;23.600;2023-04-01T10:45:44;93711.94;;;16.95;50.35
40245;BME280;25963;42.694;23.600;2023-04-01T11:10:24;93675.69;;;16.80;47.45
40245;BME280;25963;42.694;23.600;2023-04-01T11:24:26;93647.91;;;16.86;48.72
40245;BME280;25963;42.694;23.600;2023-04-01T11:47:44;93674.00;;;16.33;49.79
40245;BME280;25963;42.694;23.600;2023-04-01T11:50:21;93676.47;;;16.10;56.95
40245;BME280;25963;42.694;23.600;2023-04-01T11:53:05;93682.34;;;15.64;65.84
40245;BME280;25963;42.694;23.600;2023-04-01T11:58:58;93731.00;;;15.12;70.43
40245;BME280;25963;42.694;23.600;2023-04-01T12:09:58;93901.22;;;13.09;100.00
40245;BME280;25963;42.694;23.600;2023-04-01T12:12:37;93920.44;;;12.63;100.00
40245;BME280;25963;42.694;23.600;2023-04-01T12:18:27;93943.06;;;11.54;100.00
40245;BME280;25963;42.694;23.600;2023-04-01T12:27:13;93929.56;;;11.18;100.00
40245;BME280;25963;42.694;23.600;2023-04-01T12:30:12;93930.06;;;11.10;100.00
40245;BME280;25963;42.694;23.600;2023-04-01T12:35:54;93933.41;;;11.32;100.00
40245;BME280;25963;42.694;23.600;2023-04-01T12:41:30;93925.81;;;11.78;100.00
40245;BME280;25963;42.694;23.600;2023-04-01T13:08:56;93925.53;;;12.12;100.00
40245;BME280;25963;42.694;23.600;2023-04-01T13:39:32;93864.88;;;12.68;100.00
40245;BME280;25963;42.694;23.600;2023-04-01T13:45:21;93827.91;;;13.30;100.00
40245;BME280;25963;42.694;23.600;2023-04-01T14:13:22;93794.19;;;13.76;100.00
40245;BME280;25963;42.694;23.600;2023-04-01T14:15:57;93798.16;;;13.68;100.00
40245;BME280;25963;42.694;23.600;2023-04-01T14:18:46;93794.84;;;14.07;100.00
40245;BME280;25963;42.694;23.600;2023-04-01T14:21:29;93781.53;;;14.18;100.00
40245;BME280;25963;42.694;23.600;2023-04-01T14:29:52;93784.59;;;14.45;100.00
40245;BME280;25963;42.694;23.600;2023-04-01T14:32:39;93760.94;;;14.54;100.00
40245;BME280;25963;42.694;23.600;2023-04-01T14:35:41;93760.72;;;14.40;100.00
40245;BME280;25963;42.694;23.600;2023-04-01T14:41:10;93762.06;;;14.82;100.00
40245;BME280;25963;42.694;23.600;2023-04-01T14:49:40;93757.94;;;14.66;100.00
40245;BME280;25963;42.694;23.600;2023-04-01T14:52:27;93742.72;;;14.76;100.00
40245;BME280;25963;42.694;23.600;2023-04-01T14:54:54;93757.84;;;15.10;100.00
40245;BME280;25963;42.694;23.600;2023-04-01T14:57:26;93754.91;;;14.77;100.00
40245;BME280;25963;42.694;23.600;2023-04-01T15:00:15;93752.34;;;14.23;100.00
40245;BME280;25963;42.694;23.600;2023-04-01T15:05:31;93754.88;;;14.43;100.00
40245;BME280;25963;42.694;23.600;2023-04-01T15:17:13;93772.81;;;14.61;100.00
40245;BME280;25963;42.694;23.600;2023-04-01T15:24:24;93764.94;;;14.46;100.00
40245;BME280;25963;42.694;23.600;2023-04-01T15:40:22;93742.31;;;14.14;100.00
40245;BME280;25963;42.694;23.600;2023-04-01T15:43:08;93751.63;;;14.12;100.00
40245;BME280;25963;42.694;23.600;2023-04-01T15:51:02;93750.53;;;13.43;100.00
40245;BME280;25963;42.694;23.600;2023-04-01T15:59:44;93741.59;;;12.98;100.00
40245;BME280;25963;42.694;23.600;2023-04-01T16:15:43;93991.97;;;10.14;100.00
40245;BME280;25963;42.694;23.600;2023-04-01T16:21:08;94005.06;;;9.42;100.00
40245;BME280;25963;42.694;23.600;2023-04-01T16:24:02;93993.38;;;9.21;100.00
40245;BME280;25963;42.694;23.600;2023-04-01T16:26:44;93994.34;;;9.14;100.00
40245;BME280;25963;42.694;23.600;2023-04-01T16:32:27;94003.00;;;8.98;100.00
40245;BME280;25963;42.694;23.600;2023-04-01T16:40:24;93991.75;;;9.03;100.00
40245;BME280;25963;42.694;23.600;2023-04-01T16:45:40;94014.53;;;8.97;100.00
40245;BME280;25963;42.694;23.600;2023-04-01T16:51:03;94026.81;;;8.91;100.00
40245;BME280;25963;42.694;23.600;2023-04-01T16:53:43;94019.06;;;9.13;100.00
40245;BME280;25963;42.694;23.600;2023-04-01T16:56:13;94020.94;;;9.01;100.00
40245;BME280;25963;42.694;23.600;2023-04-01T17:01:27;94020.25;;;8.94;100.00
40245;BME280;25963;42.694;23.600;2023-04-01T17:04:19;94023.78;;;9.00;100.00
40245;BME280;25963;42.694;23.600;2023-04-01T17:10:44;94030.97;;;8.76;100.00
40245;BME280;25963;42.694;23.600;2023-04-01T17:21:44;94046.00;;;8.28;100.00
40245;BME280;25963;42.694;23.600;2023-04-01T17:33:06;94084.03;;;7.90;100.00
40245;BME280;25963;42.694;23.600;2023-04-01T17:41:28;94098.16;;;7.66;100.00
40245;BME280;25963;42.694;23.600;2023-04-01T17:52:33;94110.50;;;7.47;100.00
40245;BME280;25963;42.694;23.600;2023-04-01T17:55:31;94119.63;;;7.44;100.00
40245;BME280;25963;42.694;23.600;2023-04-01T17:58:20;94115.84;;;7.40;100.00
40245;BME280;25963;42.694;23.600;2023-04-01T18:03:57;94120.31;;;7.40;100.00
40245;BME280;25963;42.694;23.600;2023-04-01T18:12:09;94115.41;;;7.13;100.00
40245;BME280;25963;42.694;23.600;2023-04-01T18:25:34;94100.00;;;6.86;100.00
40245;BME280;25963;42.694;23.600;2023-04-01T18:30:56;94144.41;;;7.00;100.00
40245;BME280;25963;42.694;23.600;2023-04-01T18:38:49;94166.72;;;7.09;100.00
40245;BME280;25963;42.694;23.600;2023-04-01T18:41:25;94169.88;;;7.11;100.00
40245;BME280;25963;42.694;23.600;2023-04-01T18:50:02;94189.47;;;6.90;100.00
40245;BME280;25963;42.694;23.600;2023-04-01T18:52:42;94181.63;;;6.90;100.00
40245;BME280;25963;42.694;23.600;2023-04-01T18:55:32;94181.50;;;7.03;100.00
40245;BME280;25963;42.694;23.600;2023-04-01T18:58:28;94177.75;;;6.93;100.00
40245;BME280;25963;42.694;23.600;2023-04-01T19:01:11;94183.44;;;7.08;100.00
40245;BME280;25963;42.694;23.600;2023-04-01T19:03:51;94157.66;;;6.86;100.00
40245;BME280;25963;42.694;23.600;2023-04-01T19:06:28;94192.06;;;7.15;100.00
40245;BME280;25963;42.694;23.600;2023-04-01T19:09:08;94199.69;;;7.17;100.00
40245;BME280;25963;42.694;23.600;2023-04-01T19:11:46;94203.41;;;7.09;100.00
40245;BME280;25963;42.694;23.600;2023-04-01T19:14:44;94207.78;;;7.15;100.00
40245;BME280;25963;42.694;23.600;2023-04-01T19:19:59;94213.31;;;7.25;100.00
40245;BME280;25963;42.694;23.600;2023-04-01T19:25:15;94230.53;;;7.21;100.00
40245;BME280;25963;42.694;23.600;2023-04-01T19:27:52;94240.13;;;7.09;100.00
40245;BME280;25963;42.694;23.600;2023-04-01T19:35:47;94241.44;;;7.18;100.00
40245;BME280;25963;42.694;23.600;2023-04-01T19:38:28;94238.31;;;7.28;100.00
40245;BME280;25963;42.694;23.600;2023-04-01T19:41:41;94243.28;;;7.36;100.00
40245;BME280;25963;42.694;23.600;2023-04-01T19:43:58;94248.38;;;7.31;100.00
40245;BME280;25963;42.694;23.600;2023-04-01T19:46:43;94234.22;;;7.32;100.00
40245;BME280;25963;42.694;23.600;2023-04-01T19:49:16;94238.38;;;7.21;100.00
40245;BME280;25963;42.694;23.600;2023-04-01T19:51:51;94244.19;;;7.42;100.00
40245;BME280;25963;42.694;23.600;2023-04-01T19:54:36;94246.38;;;7.26;100.00
40245;BME280;25963;42.694;23.600;2023-04-01T20:05:49;94245.22;;;7.22;100.00
40245;BME280;25963;42.694;23.600;2023-04-01T20:11:21;94239.97;;;7.22;100.00
40245;BME280;25963;42.694;23.600;2023-04-01T20:16:35;94251.50;;;7.21;100.00
40245;BME280;25963;42.694;23.600;2023-04-01T20:19:02;94255.78;;;7.16;100.00
40245;BME280;25963;42.694;23.600;2023-04-01T20:21:40;94259.50;;;7.08;100.00
40245;BME280;25963;42.694;23.600;2023-04-01T20:24:35;94276.53;;;7.17;100.00
40245;BME280;25963;42.694;23.600;2023-04-01T20:35:25;94272.53;;;7.15;100.00
40245;BME280;25963;42.694;23.600;2023-04-01T20:49:34;94293.81;;;7.06;100.00
40245;BME280;25963;42.694;23.600;2023-04-01T21:03:10;94285.88;;;7.13;100.00
40245;BME280;25963;42.694;23.600;2023-04-01T21:13:49;94306.00;;;7.19;100.00
40245;BME280;25963;42.694;23.600;2023-04-01T21:21:41;94298.63;;;7.28;100.00
40245;BME280;25963;42.694;23.600;2023-04-01T21:30:15;94294.84;;;7.24;100.00
40245;BME280;25963;42.694;23.600;2023-04-01T21:32:36;94268.69;;;7.17;100.00
40245;BME280;25963;42.694;23.600;2023-04-01T21:35:20;94294.63;;;7.44;100.00
40245;BME280;25963;42.694;23.600;2023-04-01T21:49:31;94287.09;;;6.92;100.00
40245;BME280;25963;42.694;23.600;2023-04-01T22:09:02;94297.66;;;6.79;100.00
40245;BME280;25963;42.694;23.600;2023-04-01T22:11:53;94301.13;;;6.79;100.00
40245;BME280;25963;42.694;23.600;2023-04-01T22:14:50;94296.44;;;6.81;100.00
40245;BME280;25963;42.694;23.600;2023-04-01T22:17:32;94302.97;;;6.72;100.00
40245;BME280;25963;42.694;23.600;2023-04-01T22:28:10;94295.53;;;6.69;100.00
40245;BME280;25963;42.694;23.600;2023-04-01T22:30:56;94260.19;;;6.28;100.00
40245;BME280;25963;42.694;23.600;2023-04-01T22:44:01;94303.72;;;6.54;100.00
40245;BME280;25963;42.694;23.600;2023-04-01T22:51:45;94321.31;;;6.47;100.00
40245;BME280;25963;42.694;23.600;2023-04-01T22:57:34;94319.44;;;6.54;100.00
40245;BME280;25963;42.694;23.600;2023-04-01T22:59:58;94322.28;;;6.53;100.00
40245;BME280;25963;42.694;23.600;2023-04-01T23:02:29;94316.28;;;6.46;100.00
40245;BME280;25963;42.694;23.600;2023-04-01T23:04:59;94335.22;;;6.48;100.00
40245;BME280;25963;42.694;23.600;2023-04-01T23:12:51;94322.78;;;6.68;100.00
40245;BME280;25963;42.694;23.600;2023-04-01T23:15:19;94334.91;;;6.88;100.00
40245;BME280;25963;42.694;23.600;2023-04-01T23:20:36;94339.16;;;6.89;100.00
40245;BME280;25963;42.694;23.600;2023-04-01T23:29:25;94334.03;;;6.94;100.00
40245;BME280;25963;42.694;23.600;2023-04-01T23:32:15;94332.78;;;6.78;100.00
40245;BME280;25963;42.694;23.600;2023-04-01T23:34:49;94338.81;;;6.78;100.00
40245;BME280;25963;42.694;23.600;2023-04-01T23:37:16;94334.38;;;6.79;100.00
40245;BME280;25963;42.694;23.600;2023-04-01T23:39:45;94325.50;;;6.80;100.00
40245;BME280;25963;42.694;23.600;2023-04-01T23:44:52;94323.50;;;6.50;100.00
40245;BME280;25963;42.694;23.600;2023-04-01T23:47:22;94316.91;;;6.41;100.00
40245;BME280;25963;42.694;23.600;2023-04-01T23:49:55;94333.75;;;6.52;100.00
40245;BME280;25963;42.694;23.600;2023-04-01T23:52:31;94343.50;;;6.45;100.00
40245;BME280;25963;42.694;23.600;2023-04-01T23:55:08;94344.34;;;6.38;100.00
40245;BME280;25963;42.694;23.600;2023-04-01T23:57:38;94319.84;;;6.26;100.00
